Patrice Mcallister — WDG2567 — position and weather

sailwx.info

Track history (hours):
 
Tides and Currents Weather Stations Pressure Air Temp Water Temp Dewpoint Dewpoint Depression Visibility Wind Speed Wind Dir Waves Ship Positions

Patrice Mcallister

Owner: McAllister Towing & Transportation Co. Inc., Staten Island, NY. More information available from US FCC via Universal Licensing System and Coast Guard Vessel Documentation Center.

Last reported at 2017-Dec-07 15:38 UTC. Time now 2017-Dec-15 04:28 UTC.
Position N 25°29' W 079°59'.

Length 33 m; draft 3.7 m.

Type: Tow > 200 m length. MMSI: 367516950.

Date/timePositionNaut miles runAvg speedWind from/ knotsBaromVisibWave heightAir tempDewpointWater temp
2017-Dec-07 15:38N 25°29' W 079°59'1 7.2
2017-Dec-07 15:30N 25°30' W 079°59'4 7.1
2017-Dec-07 15:00N 25°34' W 080°00'4 7.4
2017-Dec-07 14:30N 25°37' W 080°01'4 7.8
2017-Dec-07 14:00N 25°41' W 080°03'5 9.1
2017-Dec-07 13:30N 25°45' W 080°04'5 9.4
2017-Dec-07 13:00N 25°50' W 080°04'5 9.6
2017-Dec-07 12:30N 25°55' W 080°04'5 9.9
2017-Dec-07 12:00N 25°60' W 080°03'510.3
2017-Dec-07 11:30N 26°05' W 080°03'510.4
2017-Dec-07 11:00N 26°10' W 080°02'5 9.4
2017-Dec-07 10:30N 26°15' W 080°02'4 8.6
2017-Dec-07 10:00N 26°19' W 080°01'4 8.0
2017-Dec-07 09:30N 26°23' W 080°01'4 7.6
2017-Dec-07 09:00N 26°27' W 080°00'4 7.4
2017-Dec-07 08:30N 26°30' W 080°00'3 7.1
2017-Dec-07 08:00N 26°34' W 079°60'3 6.9
2017-Dec-07 07:30N 26°37' W 079°59'3 6.7
2017-Dec-07 07:00N 26°41' W 079°59'3 6.6
2017-Dec-07 06:30N 26°44' W 079°59'3 6.5
2017-Dec-07 06:00N 26°47' W 079°58'3 6.3
2017-Dec-07 05:30N 26°50' W 079°59'3 6.5
2017-Dec-07 05:00N 26°54' W 079°59'4 7.8
2017-Dec-07 04:30N 26°58' W 079°59'4 8.5
2017-Dec-07 04:00N 27°02' W 079°59'  
2017-Dec-03 10:12N 27°09' W 079°60'2 9.4
2017-Dec-03 10:00N 27°07' W 079°60'5 9.5
2017-Dec-03 09:30N 27°03' W 079°59'5 9.6
2017-Dec-03 09:00N 26°58' W 079°59'5 9.4
2017-Dec-03 08:30N 26°53' W 079°59'4 8.9
2017-Dec-03 08:00N 26°49' W 079°58'4 8.6
2017-Dec-03 07:30N 26°44' W 079°59'4 8.1
2017-Dec-03 07:00N 26°40' W 079°59'4 7.8
2017-Dec-03 06:30N 26°36' W 079°60'4 7.5
2017-Dec-03 06:00N 26°33' W 079°60'4 7.3
2017-Dec-03 05:30N 26°29' W 080°00'4 7.6
2017-Dec-03 05:00N 26°25' W 080°01'4 7.9
2017-Dec-03 04:30N 26°21' W 080°01'4 8.2
2017-Dec-03 04:00N 26°17' W 080°01'4 8.4
2017-Dec-03 03:30N 26°13' W 080°02'4 8.3
2017-Dec-03 03:00N 26°09' W 080°02'4 7.9
2017-Dec-03 02:30N 26°05' W 080°03'4 7.7
2017-Dec-03 02:00N 26°01' W 080°03'4 7.8
2017-Dec-03 01:30N 25°57' W 080°03'4 8.0
2017-Dec-03 01:00N 25°53' W 080°04'4 8.2
2017-Dec-03 00:30N 25°49' W 080°04'4 8.4
2017-Dec-03 00:00N 25°45' W 080°04'5 9.7
2017-Dec-02 23:30N 25°40' W 080°02'510.8
2017-Dec-02 23:00N 25°35' W 079°60'510.9
2017-Dec-02 22:30N 25°30' W 079°58'510.7
2017-Dec-02 22:00N 25°25' W 079°56'  
Track history (hours):
 
Tides and Currents Weather Stations Pressure Air Temp Water Temp Dewpoint Dewpoint Depression Visibility Wind Speed Wind Dir Waves Ship Positions

Patrice Mcallister

Owner: McAllister Towing & Transportation Co. Inc., Staten Island, NY. More information available from US FCC via Universal Licensing System and Coast Guard Vessel Documentation Center.

Last reported at 2017-Dec-07 15:38 UTC. Time now 2017-Dec-15 04:28 UTC.
Position N 25°29' W 079°59'.

Length 33 m; draft 3.7 m.

Type: Tow > 200 m length. MMSI: 367516950.

Date/timePositionNaut miles runAvg speedWind from/ knotsBaromVisibWave heightAir tempDewpointWater temp
2017-Dec-07 15:38N 25°29' W 079°59'1 7.2
2017-Dec-07 15:30N 25°30' W 079°59'4 7.1
2017-Dec-07 15:00N 25°34' W 080°00'4 7.4
2017-Dec-07 14:30N 25°37' W 080°01'4 7.8
2017-Dec-07 14:00N 25°41' W 080°03'5 9.1
2017-Dec-07 13:30N 25°45' W 080°04'5 9.4
2017-Dec-07 13:00N 25°50' W 080°04'5 9.6
2017-Dec-07 12:30N 25°55' W 080°04'5 9.9
2017-Dec-07 12:00N 25°60' W 080°03'510.3
2017-Dec-07 11:30N 26°05' W 080°03'510.4
2017-Dec-07 11:00N 26°10' W 080°02'5 9.4
2017-Dec-07 10:30N 26°15' W 080°02'4 8.6
2017-Dec-07 10:00N 26°19' W 080°01'4 8.0
2017-Dec-07 09:30N 26°23' W 080°01'4 7.6
2017-Dec-07 09:00N 26°27' W 080°00'4 7.4
2017-Dec-07 08:30N 26°30' W 080°00'3 7.1
2017-Dec-07 08:00N 26°34' W 079°60'3 6.9
2017-Dec-07 07:30N 26°37' W 079°59'3 6.7
2017-Dec-07 07:00N 26°41' W 079°59'3 6.6
2017-Dec-07 06:30N 26°44' W 079°59'3 6.5
2017-Dec-07 06:00N 26°47' W 079°58'3 6.3
2017-Dec-07 05:30N 26°50' W 079°59'3 6.5
2017-Dec-07 05:00N 26°54' W 079°59'4 7.8
2017-Dec-07 04:30N 26°58' W 079°59'4 8.5
2017-Dec-07 04:00N 27°02' W 079°59'  
2017-Dec-03 10:12N 27°09' W 079°60'2 9.4
2017-Dec-03 10:00N 27°07' W 079°60'5 9.5
2017-Dec-03 09:30N 27°03' W 079°59'5 9.6
2017-Dec-03 09:00N 26°58' W 079°59'5 9.4
2017-Dec-03 08:30N 26°53' W 079°59'4 8.9
2017-Dec-03 08:00N 26°49' W 079°58'4 8.6
2017-Dec-03 07:30N 26°44' W 079°59'4 8.1
2017-Dec-03 07:00N 26°40' W 079°59'4 7.8
2017-Dec-03 06:30N 26°36' W 079°60'4 7.5
2017-Dec-03 06:00N 26°33' W 079°60'4 7.3
2017-Dec-03 05:30N 26°29' W 080°00'4 7.6
2017-Dec-03 05:00N 26°25' W 080°01'4 7.9
2017-Dec-03 04:30N 26°21' W 080°01'4 8.2
2017-Dec-03 04:00N 26°17' W 080°01'4 8.4
2017-Dec-03 03:30N 26°13' W 080°02'4 8.3
2017-Dec-03 03:00N 26°09' W 080°02'4 7.9
2017-Dec-03 02:30N 26°05' W 080°03'4 7.7
2017-Dec-03 02:00N 26°01' W 080°03'4 7.8
2017-Dec-03 01:30N 25°57' W 080°03'4 8.0
2017-Dec-03 01:00N 25°53' W 080°04'4 8.2
2017-Dec-03 00:30N 25°49' W 080°04'4 8.4
2017-Dec-03 00:00N 25°45' W 080°04'5 9.7
2017-Dec-02 23:30N 25°40' W 080°02'510.8
2017-Dec-02 23:00N 25°35' W 079°60'510.9
2017-Dec-02 22:30N 25°30' W 079°58'510.7
2017-Dec-02 22:00N 25°25' W 079°56'  

Dump ship's entire track history